createdAt,value
2018-10-12T00:00:40.247Z,99.41
2018-10-12T00:01:40.117Z,99.60
2018-10-12T00:02:39.994Z,99.13
2018-10-12T00:03:39.867Z,99.08
2018-10-12T00:04:39.744Z,99.46
2018-10-12T00:05:39.615Z,99.99
2018-10-12T00:06:39.491Z,99.94
2018-10-12T00:07:39.365Z,99.99
2018-10-12T00:08:39.240Z,99.65
2018-10-12T00:09:39.113Z,99.99
2018-10-12T00:10:38.988Z,99.99
2018-10-12T00:11:38.861Z,99.94
2018-10-12T00:12:38.735Z,99.99
2018-10-12T00:13:38.612Z,99.99
2018-10-12T00:14:38.486Z,99.99
2018-10-12T00:15:38.358Z,99.99
2018-10-12T00:16:38.233Z,99.94
2018-10-12T00:17:38.115Z,99.99
2018-10-12T00:18:37.983Z,99.99
2018-10-12T00:19:37.854Z,99.99
2018-10-12T00:20:37.733Z,99.84
2018-10-12T00:21:37.605Z,99.99
2018-10-12T00:22:37.478Z,99.99
2018-10-12T00:23:37.353Z,99.99
2018-10-12T00:24:37.227Z,99.94
2018-10-12T00:25:37.100Z,99.99
2018-10-12T00:26:36.973Z,99.99
2018-10-12T00:27:36.846Z,99.99
2018-10-12T00:28:36.722Z,99.99
2018-10-12T00:29:36.597Z,99.99
2018-10-12T00:30:36.471Z,99.99
2018-10-12T00:31:36.346Z,99.99
2018-10-12T00:32:36.218Z,99.99
2018-10-12T00:33:36.095Z,99.99
2018-10-12T00:34:35.974Z,99.99
2018-10-12T00:35:35.838Z,99.99
2018-10-12T00:36:35.721Z,99.99
2018-10-12T00:37:35.588Z,99.99
2018-10-12T00:38:35.463Z,99.99
2018-10-12T00:39:35.338Z,99.99
2018-10-12T00:40:35.210Z,99.99
2018-10-12T00:41:35.087Z,99.99
2018-10-12T00:42:34.960Z,99.99
2018-10-12T00:43:34.834Z,99.99
2018-10-12T00:44:34.709Z,99.99
2018-10-12T00:45:34.584Z,99.99
2018-10-12T00:46:34.455Z,99.99
2018-10-12T00:47:34.328Z,99.99
2018-10-12T00:48:34.204Z,99.99
2018-10-12T00:49:34.103Z,99.99
2018-10-12T00:50:33.955Z,99.99
2018-10-12T00:51:33.825Z,99.99
2018-10-12T00:52:33.702Z,99.99
2018-10-12T00:53:33.576Z,99.99
2018-10-12T00:54:33.448Z,99.99
2018-10-12T00:55:33.322Z,99.99
2018-10-12T00:56:33.197Z,99.99
2018-10-12T00:57:33.071Z,99.99
2018-10-12T00:58:32.944Z,99.99
2018-10-12T00:59:32.818Z,99.99
2018-10-12T01:00:32.692Z,99.99
2018-10-12T01:01:32.565Z,99.99
2018-10-12T01:02:32.440Z,99.99
2018-10-12T01:03:32.325Z,99.99
2018-10-12T01:04:32.189Z,99.99
2018-10-12T01:05:32.065Z,99.99
2018-10-12T01:06:31.981Z,99.99
2018-10-12T01:07:31.810Z,99.99
2018-10-12T01:08:31.686Z,99.99
2018-10-12T01:09:31.558Z,99.99
2018-10-12T01:10:31.438Z,99.99
2018-10-12T01:11:31.307Z,99.99
2018-10-12T01:12:31.187Z,99.99
2018-10-12T01:13:31.054Z,99.99
2018-10-12T01:14:30.930Z,99.99
2018-10-12T01:15:30.803Z,99.99
2018-10-12T01:16:30.677Z,99.99
2018-10-12T01:17:30.556Z,99.99
2018-10-12T01:18:30.426Z,99.99
2018-10-12T01:19:30.299Z,99.99
2018-10-12T01:20:30.174Z,99.99
2018-10-12T01:21:30.048Z,99.99
2018-10-12T01:22:29.927Z,99.99
2018-10-12T01:23:29.797Z,99.99
2018-10-12T01:24:29.671Z,99.99
2018-10-12T01:25:29.545Z,99.99
2018-10-12T01:26:29.421Z,99.99
2018-10-12T01:27:29.293Z,99.99
2018-10-12T01:28:29.169Z,99.99
2018-10-12T01:29:29.088Z,99.99
2018-10-12T01:30:28.917Z,99.99
2018-10-12T01:31:28.802Z,99.99
2018-10-12T01:32:28.664Z,99.99
2018-10-12T01:33:28.538Z,99.99
2018-10-12T01:34:28.415Z,99.99
2018-10-12T01:35:28.286Z,99.99
2018-10-12T01:36:28.164Z,99.99
2018-10-12T01:37:28.037Z,99.99
2018-10-12T01:38:27.910Z,99.99
2018-10-12T01:39:27.784Z,99.99
2018-10-12T01:40:27.661Z,99.99
2018-10-12T01:41:27.534Z,99.99
2018-10-12T01:42:27.408Z,99.99
2018-10-12T01:43:27.287Z,99.99
2018-10-12T01:44:27.160Z,99.99
2018-10-12T01:45:27.030Z,99.99
2018-10-12T01:46:26.906Z,99.99
2018-10-12T01:47:26.778Z,99.99
2018-10-12T01:48:26.653Z,99.99
2018-10-12T01:49:26.530Z,99.99
2018-10-12T01:50:26.402Z,99.99
2018-10-12T01:51:26.280Z,99.99
2018-10-12T01:52:26.159Z,99.99
2018-10-12T01:53:26.026Z,99.99
2018-10-12T01:54:25.902Z,99.99
2018-10-12T01:55:25.776Z,99.99
2018-10-12T01:56:25.648Z,99.99
2018-10-12T01:57:25.525Z,99.99
2018-10-12T01:58:25.401Z,99.99
2018-10-12T01:59:25.276Z,99.99
2018-10-12T02:00:25.150Z,99.70
2018-10-12T02:01:25.022Z,99.99
2018-10-12T02:02:24.898Z,99.89
2018-10-12T02:03:24.772Z,99.22
2018-10-12T02:04:24.646Z,98.85
2018-10-12T02:05:24.522Z,98.94
2018-10-12T02:06:24.397Z,99.04
2018-10-12T02:07:24.271Z,99.22
2018-10-12T02:08:24.145Z,99.80
2018-10-12T02:09:24.024Z,99.51
2018-10-12T02:10:23.894Z,98.94
2018-10-12T02:11:23.768Z,99.99
2018-10-12T02:12:23.643Z,99.99
2018-10-12T02:13:23.517Z,99.99
2018-10-12T02:14:23.391Z,99.60
2018-10-12T02:15:23.266Z,99.99
2018-10-12T02:16:23.139Z,99.99
2018-10-12T02:17:23.024Z,99.99
2018-10-12T02:18:22.890Z,99.99
2018-10-12T02:19:22.763Z,99.99
2018-10-12T02:20:22.637Z,99.99
2018-10-12T02:21:22.532Z,99.99
2018-10-12T02:22:22.389Z,99.99
2018-10-12T02:23:22.261Z,99.99
2018-10-12T02:24:22.145Z,99.99
2018-10-12T02:25:22.010Z,99.99
2018-10-12T02:26:21.887Z,99.99
2018-10-12T02:27:21.760Z,99.99
2018-10-12T02:28:21.634Z,99.99
2018-10-12T02:29:21.511Z,99.99
2018-10-12T02:30:21.396Z,99.99
2018-10-12T02:31:21.259Z,99.99
2018-10-12T02:32:21.136Z,99.99
2018-10-12T02:33:21.011Z,99.99
2018-10-12T02:34:20.885Z,99.99
2018-10-12T02:35:20.757Z,99.99
2018-10-12T02:36:20.633Z,99.99
2018-10-12T02:37:20.506Z,99.99
2018-10-12T02:38:20.382Z,99.99
2018-10-12T02:39:20.255Z,99.99
2018-10-12T02:40:20.141Z,99.99
2018-10-12T02:41:20.007Z,99.99
2018-10-12T02:42:19.880Z,99.99
2018-10-12T02:43:19.754Z,99.99
2018-10-12T02:44:19.634Z,99.99
2018-10-12T02:45:19.504Z,99.99
2018-10-12T02:46:19.380Z,99.99
2018-10-12T02:47:19.253Z,99.99
2018-10-12T02:48:19.128Z,99.99
2018-10-12T02:49:19.004Z,99.99
2018-10-12T02:50:18.876Z,99.99
2018-10-12T02:51:18.750Z,99.99
2018-10-12T02:52:18.626Z,99.99
2018-10-12T02:53:18.509Z,99.99
2018-10-12T02:54:18.375Z,99.99
2018-10-12T02:55:18.249Z,99.99
2018-10-12T02:56:18.125Z,99.99
2018-10-12T02:57:17.996Z,99.99
2018-10-12T02:58:17.874Z,99.99
2018-10-12T02:59:17.745Z,99.99
2018-10-12T03:00:17.621Z,99.99
2018-10-12T03:01:17.496Z,99.99
2018-10-12T03:02:17.370Z,99.99
2018-10-12T03:03:17.242Z,99.99
2018-10-12T03:04:17.119Z,99.75
2018-10-12T03:05:16.991Z,99.51
2018-10-12T03:06:16.866Z,99.99
2018-10-12T03:07:16.739Z,99.99
2018-10-12T03:08:16.617Z,99.99
2018-10-12T03:09:16.489Z,99.99
2018-10-12T03:10:16.364Z,99.99
2018-10-12T03:11:16.236Z,99.99
2018-10-12T03:12:16.119Z,99.99
2018-10-12T03:13:15.987Z,99.99
2018-10-12T03:14:15.862Z,99.99
2018-10-12T03:15:15.734Z,99.99
2018-10-12T03:16:15.609Z,99.99
2018-10-12T03:17:15.484Z,99.99
2018-10-12T03:18:15.358Z,99.99
2018-10-12T03:19:15.231Z,99.99
2018-10-12T03:20:15.105Z,99.99
2018-10-12T03:21:14.987Z,99.41
2018-10-12T03:22:14.855Z,99.60
2018-10-12T03:23:14.729Z,99.22
2018-10-12T03:24:14.605Z,99.99
2018-10-12T03:25:14.478Z,99.99
2018-10-12T03:26:14.352Z,99.99
2018-10-12T03:27:14.231Z,99.99
2018-10-12T03:28:14.101Z,99.99
2018-10-12T03:29:13.976Z,99.99
2018-10-12T03:30:13.851Z,99.99
2018-10-12T03:31:13.723Z,99.99
2018-10-12T03:32:13.598Z,99.99
2018-10-12T03:33:13.473Z,99.99
2018-10-12T03:34:13.348Z,99.99
2018-10-12T03:35:13.221Z,99.99
2018-10-12T03:36:13.096Z,99.99
2018-10-12T03:37:13.030Z,99.99
2018-10-12T03:38:12.845Z,99.99
2018-10-12T03:39:12.717Z,99.99
2018-10-12T03:40:12.594Z,99.99
2018-10-12T03:41:12.464Z,99.99
2018-10-12T03:42:12.341Z,99.99
2018-10-12T03:43:12.214Z,99.99
2018-10-12T03:44:12.088Z,99.99
2018-10-12T03:45:11.964Z,99.99
2018-10-12T03:46:11.838Z,99.99
2018-10-12T03:47:11.712Z,99.99
2018-10-12T03:48:11.586Z,99.99
2018-10-12T03:49:11.461Z,99.99
2018-10-12T03:50:11.334Z,99.99
2018-10-12T03:51:11.209Z,99.99
2018-10-12T03:52:11.081Z,99.99
2018-10-12T03:53:10.958Z,99.99
2018-10-12T03:54:10.834Z,99.99
2018-10-12T03:55:10.705Z,99.99
2018-10-12T03:56:10.578Z,99.99
2018-10-12T03:57:10.455Z,99.99
2018-10-12T03:58:10.326Z,99.99
2018-10-12T03:59:10.201Z,99.99
2018-10-12T04:00:10.083Z,99.99
2018-10-12T04:01:09.950Z,99.99
2018-10-12T04:02:09.834Z,99.99
2018-10-12T04:03:09.695Z,99.99
2018-10-12T04:04:09.571Z,99.99
2018-10-12T04:05:09.446Z,99.99
2018-10-12T04:06:09.320Z,99.99
2018-10-12T04:07:09.192Z,99.99
2018-10-12T04:08:09.068Z,99.99
2018-10-12T04:09:08.946Z,99.99
2018-10-12T04:10:08.816Z,99.99
2018-10-12T04:11:08.689Z,99.99
2018-10-12T04:12:08.562Z,99.99
2018-10-12T04:13:08.438Z,99.99
2018-10-12T04:14:08.313Z,99.99
2018-10-12T04:15:08.186Z,99.99
2018-10-12T04:16:08.058Z,99.99
2018-10-12T04:17:07.940Z,99.99
2018-10-12T04:18:07.807Z,99.99
2018-10-12T04:19:07.679Z,99.99
2018-10-12T04:20:07.554Z,99.99
2018-10-12T04:21:07.428Z,99.99
2018-10-12T04:22:07.303Z,99.99
2018-10-12T04:23:07.181Z,99.99
2018-10-12T04:24:07.049Z,99.99
2018-10-12T04:25:06.925Z,99.99
2018-10-12T04:26:06.798Z,99.99
2018-10-12T04:27:06.674Z,99.99
2018-10-12T04:28:06.545Z,99.99
2018-10-12T04:29:06.420Z,99.99
2018-10-12T04:30:06.295Z,99.99
2018-10-12T04:31:06.169Z,99.99
2018-10-12T04:32:06.044Z,99.99
2018-10-12T04:33:05.915Z,99.99
2018-10-12T04:34:05.786Z,99.99
2018-10-12T04:35:05.661Z,99.99
2018-10-12T04:36:05.535Z,99.99
2018-10-12T04:37:05.408Z,99.99
2018-10-12T04:38:05.283Z,99.99
2018-10-12T04:39:05.157Z,99.99
2018-10-12T04:40:05.031Z,99.99
2018-10-12T04:41:04.904Z,99.99
2018-10-12T04:42:04.780Z,99.99
2018-10-12T04:43:04.650Z,99.99
2018-10-12T04:44:04.523Z,99.99
2018-10-12T04:45:04.398Z,99.99
2018-10-12T04:46:04.272Z,99.99
2018-10-12T04:47:04.192Z,99.99
2018-10-12T04:48:04.018Z,99.99
2018-10-12T04:49:03.891Z,99.99
2018-10-12T04:50:03.766Z,99.99
2018-10-12T04:51:03.638Z,99.99
2018-10-12T04:52:03.517Z,99.99
2018-10-12T04:53:03.390Z,99.99
2018-10-12T04:54:03.259Z,99.99
2018-10-12T04:55:03.134Z,99.99
2018-10-12T04:56:03.007Z,99.99
2018-10-12T04:57:02.879Z,99.99
2018-10-12T04:58:02.755Z,99.99
2018-10-12T04:59:02.629Z,99.99
2018-10-12T05:00:02.503Z,99.99
2018-10-12T05:01:02.395Z,99.99
2018-10-12T05:02:02.247Z,99.99
2018-10-12T05:03:02.121Z,99.99
2018-10-12T05:04:01.994Z,99.99
2018-10-12T05:05:01.869Z,99.99
2018-10-12T05:06:01.747Z,99.99
2018-10-12T05:07:01.614Z,99.99
2018-10-12T05:08:01.488Z,99.99
2018-10-12T05:09:01.362Z,99.99
2018-10-12T05:10:01.236Z,99.99
2018-10-12T05:11:01.110Z,99.99
2018-10-12T05:12:00.981Z,99.99
2018-10-12T05:13:00.858Z,99.99
2018-10-12T05:14:00.731Z,99.99
2018-10-12T05:15:00.601Z,99.99
2018-10-12T05:16:00.475Z,99.99
2018-10-12T05:17:00.349Z,99.99
2018-10-12T05:18:00.225Z,99.99
2018-10-12T05:19:00.100Z,99.99
2018-10-12T05:19:59.969Z,99.99
2018-10-12T05:20:59.847Z,99.99
2018-10-12T05:21:59.777Z,99.99
2018-10-12T05:22:59.590Z,99.99
2018-10-12T05:23:59.478Z,99.99
2018-10-12T05:24:59.338Z,99.99
2018-10-12T05:25:59.213Z,99.99
2018-10-12T05:26:59.090Z,99.99
2018-10-12T05:27:58.962Z,99.99
2018-10-12T05:28:58.875Z,99.99
2018-10-12T05:29:58.746Z,99.99
2018-10-12T05:30:58.579Z,99.99
2018-10-12T05:31:58.453Z,99.99
2018-10-12T05:32:58.325Z,99.99
2018-10-12T05:33:58.200Z,99.99
2018-10-12T05:34:58.073Z,99.99
2018-10-12T05:35:57.985Z,99.99
2018-10-12T05:36:57.823Z,99.99
2018-10-12T05:37:57.703Z,99.99
2018-10-12T05:38:57.568Z,99.99
2018-10-12T05:39:57.443Z,99.99
2018-10-12T05:40:57.316Z,99.99
2018-10-12T05:41:57.198Z,99.99
2018-10-12T05:42:57.103Z,99.99
2018-10-12T05:43:56.938Z,99.99
2018-10-12T05:44:56.812Z,99.99
2018-10-12T05:45:56.686Z,99.99
2018-10-12T05:46:56.559Z,99.99
2018-10-12T05:47:56.434Z,99.99
2018-10-12T05:48:56.348Z,99.99
2018-10-12T05:49:56.181Z,99.99
2018-10-12T05:50:56.056Z,99.99
2018-10-12T05:51:55.927Z,99.99
2018-10-12T05:52:55.809Z,99.99
2018-10-12T05:53:55.676Z,99.99
2018-10-12T05:54:55.551Z,99.99
2018-10-12T05:55:55.489Z,99.99
2018-10-12T05:56:55.300Z,99.99
2018-10-12T05:57:55.174Z,99.99
2018-10-12T05:58:55.061Z,99.99
2018-10-12T05:59:54.928Z,99.99
2018-10-12T06:00:54.795Z,99.99
2018-10-12T06:01:54.674Z,99.99
2018-10-12T06:02:54.544Z,99.99
2018-10-12T06:03:54.418Z,99.99
2018-10-12T06:04:54.292Z,99.99
2018-10-12T06:05:54.172Z,99.99
2018-10-12T06:06:54.039Z,99.99
2018-10-12T06:07:53.917Z,99.99
2018-10-12T06:08:53.787Z,99.99
2018-10-12T06:09:53.796Z,99.99
2018-10-12T06:10:53.551Z,99.99
2018-10-12T06:11:53.407Z,99.99
2018-10-12T06:12:53.282Z,99.99
2018-10-12T06:13:53.155Z,99.99
2018-10-12T06:14:53.029Z,99.99
2018-10-12T06:15:52.965Z,99.99
2018-10-12T06:16:52.777Z,99.99
2018-10-12T06:17:52.651Z,99.99
2018-10-12T06:18:52.524Z,99.99
2018-10-12T06:19:52.402Z,99.99
2018-10-12T06:20:52.273Z,99.99
2018-10-12T06:21:52.147Z,99.99
2018-10-12T06:22:52.021Z,99.99
2018-10-12T06:23:51.895Z,99.99
2018-10-12T06:24:51.768Z,99.99
2018-10-12T06:25:51.643Z,99.99
2018-10-12T06:26:51.577Z,99.99
2018-10-12T06:27:51.391Z,99.99
2018-10-12T06:28:51.273Z,99.99
2018-10-12T06:29:51.140Z,99.99
2018-10-12T06:30:51.014Z,99.99
2018-10-12T06:31:50.889Z,99.99
2018-10-12T06:32:50.802Z,99.99
2018-10-12T06:33:50.639Z,99.99
2018-10-12T06:34:50.514Z,99.99
2018-10-12T06:35:50.385Z,99.99
2018-10-12T06:36:50.259Z,99.99
2018-10-12T06:37:50.134Z,99.99
2018-10-12T06:38:50.011Z,99.99
2018-10-12T06:39:49.880Z,99.99
2018-10-12T06:40:49.775Z,99.99
2018-10-12T06:41:49.735Z,99.99
2018-10-12T06:42:49.505Z,99.99
2018-10-12T06:43:49.385Z,99.99
2018-10-12T06:44:49.259Z,99.99
2018-10-12T06:45:49.130Z,99.99
2018-10-12T06:46:49.119Z,99.99
2018-10-12T06:47:48.878Z,99.99
2018-10-12T06:48:48.752Z,99.99
2018-10-12T06:49:48.626Z,99.99
2018-10-12T06:50:48.501Z,99.99
2018-10-12T06:51:48.377Z,99.99
2018-10-12T06:52:48.251Z,99.99
2018-10-12T06:53:48.185Z,99.99
2018-10-12T06:54:47.999Z,99.99
2018-10-12T06:55:47.874Z,99.99
2018-10-12T06:56:47.746Z,99.99
2018-10-12T06:57:47.622Z,99.99
2018-10-12T06:58:47.495Z,99.99
2018-10-12T06:59:47.397Z,99.99
2018-10-12T07:00:47.245Z,99.99
2018-10-12T07:01:47.119Z,99.99
2018-10-12T07:02:46.995Z,99.99
2018-10-12T07:03:46.869Z,99.99
2018-10-12T07:04:46.743Z,99.99
2018-10-12T07:05:46.658Z,99.99
2018-10-12T07:06:46.490Z,96.98
2018-10-12T07:07:46.368Z,93.55
2018-10-12T07:08:46.243Z,94.93
2018-10-12T07:09:46.117Z,94.93
2018-10-12T07:10:45.990Z,96.32
2018-10-12T07:11:45.866Z,95.84
2018-10-12T07:12:45.739Z,94.31
2018-10-12T07:13:45.653Z,90.25
2018-10-12T07:14:45.492Z,94.17
2018-10-12T07:15:45.371Z,92.64
2018-10-12T07:16:45.244Z,90.64
2018-10-12T07:17:45.121Z,89.44
2018-10-12T07:18:44.994Z,89.06
2018-10-12T07:19:44.868Z,90.01
2018-10-12T07:20:44.744Z,90.68
2018-10-12T07:21:44.621Z,89.20
2018-10-12T07:22:44.506Z,87.57
2018-10-12T07:23:44.373Z,84.75
2018-10-12T07:24:44.250Z,83.50
2018-10-12T07:25:44.178Z,83.40
2018-10-12T07:26:44.005Z,82.35
2018-10-12T07:27:43.879Z,80.63
2018-10-12T07:28:43.758Z,79.77
2018-10-12T07:29:43.636Z,80.25
2018-10-12T07:30:43.511Z,81.02
2018-10-12T07:31:43.389Z,81.11
2018-10-12T07:32:43.265Z,79.77
2018-10-12T07:33:43.142Z,79.00
2018-10-12T07:34:43.020Z,78.05
2018-10-12T07:35:42.898Z,77.09
2018-10-12T07:36:42.773Z,75.43
2018-10-12T07:37:42.846Z,76.57
2018-10-12T07:38:42.527Z,76.00
2018-10-12T07:39:42.411Z,77.28
2018-10-12T07:40:42.288Z,76.71
2018-10-12T07:41:42.163Z,75.18
2018-10-12T07:42:42.041Z,74.04
2018-10-12T07:43:41.914Z,74.13
2018-10-12T07:44:41.790Z,73.84
2018-10-12T07:45:41.669Z,73.69
2018-10-12T07:46:41.549Z,73.30
2018-10-12T07:47:41.428Z,73.40
2018-10-12T07:48:41.302Z,73.15
2018-10-12T07:49:41.180Z,74.30
2018-10-12T07:50:41.055Z,73.47
2018-10-12T07:51:40.934Z,71.08
2018-10-12T07:52:40.813Z,69.93
2018-10-12T07:53:40.688Z,68.68
2018-10-12T07:54:40.573Z,70.50
2018-10-12T07:55:40.446Z,71.50
2018-10-12T07:56:40.325Z,71.21
2018-10-12T07:57:40.204Z,70.03
2018-10-12T07:58:40.079Z,70.06
2018-10-12T07:59:39.958Z,69.93
2018-10-12T08:00:39.945Z,70.89
2018-10-12T08:01:39.715Z,69.93
2018-10-12T08:02:39.594Z,70.21
2018-10-12T08:03:39.474Z,69.93
2018-10-12T08:04:39.369Z,70.03
2018-10-12T08:05:39.231Z,71.37
2018-10-12T08:06:39.116Z,70.98
2018-10-12T08:07:38.987Z,70.03
2018-10-12T08:08:38.867Z,69.26
2018-10-12T08:09:38.808Z,69.83
2018-10-12T08:10:38.623Z,69.87
2018-10-12T08:11:38.503Z,69.10
2018-10-12T08:12:38.379Z,68.24
2018-10-12T08:13:38.300Z,68.40
2018-10-12T08:14:38.138Z,67.47
2018-10-12T08:15:38.017Z,67.57
2018-10-12T08:16:37.894Z,69.20
2018-10-12T08:17:37.775Z,67.50
2018-10-12T08:18:37.654Z,67.63
2018-10-12T08:19:37.534Z,64.66
2018-10-12T08:20:37.411Z,64.47
2018-10-12T08:21:37.290Z,63.89
2018-10-12T08:22:37.167Z,63.03
2018-10-12T08:23:37.048Z,64.56
2018-10-12T08:24:36.934Z,63.42
2018-10-12T08:25:36.808Z,64.66
2018-10-12T08:26:36.688Z,62.65
2018-10-12T08:27:36.567Z,62.65
2018-10-12T08:28:36.445Z,62.55
2018-10-12T08:29:36.324Z,63.51
2018-10-12T08:30:36.207Z,63.45
2018-10-12T08:31:36.140Z,62.68
2018-10-12T08:32:35.966Z,61.72
2018-10-12T08:33:35.841Z,61.33
2018-10-12T08:34:35.722Z,61.05
2018-10-12T08:35:35.602Z,61.62
2018-10-12T08:36:35.822Z,61.62
2018-10-12T08:37:35.361Z,60.57
2018-10-12T08:38:35.241Z,60.02
2018-10-12T08:39:35.123Z,59.54
2018-10-12T08:40:35.000Z,59.92
2018-10-12T08:41:34.879Z,59.54
2018-10-12T08:42:34.760Z,59.25
2018-10-12T08:43:34.639Z,59.44
2018-10-12T08:44:34.522Z,59.32
2018-10-12T08:45:34.403Z,60.08
2018-10-12T08:46:34.281Z,60.40
2018-10-12T08:47:34.162Z,59.83
2018-10-12T08:48:34.041Z,59.03
2018-10-12T08:49:33.923Z,61.27
2018-10-12T08:50:33.914Z,59.51
2018-10-12T08:51:33.680Z,58.94
2018-10-12T08:52:33.561Z,58.87
2018-10-12T08:53:33.450Z,58.87
2018-10-12T08:54:33.326Z,58.61
2018-10-12T08:55:33.287Z,58.22
2018-10-12T08:56:33.083Z,57.75
2018-10-12T08:57:32.965Z,57.23
2018-10-12T08:58:32.844Z,56.95
2018-10-12T08:59:32.735Z,56.49
2018-10-12T09:00:32.604Z,57.75
2018-10-12T09:01:32.484Z,56.43
2018-10-12T09:02:32.367Z,55.94
2018-10-12T09:03:32.251Z,56.65
2018-10-12T09:04:32.127Z,56.16
2018-10-12T09:05:32.010Z,55.40
2018-10-12T09:06:31.894Z,56.07
2018-10-12T09:07:31.773Z,55.68
2018-10-12T09:08:31.656Z,55.49
2018-10-12T09:09:31.569Z,55.43
2018-10-12T09:10:31.413Z,54.85
2018-10-12T09:11:31.294Z,54.94
2018-10-12T09:12:31.174Z,55.33
2018-10-12T09:13:31.060Z,55.13
2018-10-12T09:14:30.938Z,54.85
2018-10-12T09:15:30.818Z,54.36
2018-10-12T09:16:30.704Z,54.75
2018-10-12T09:17:30.583Z,55.01
2018-10-12T09:18:30.466Z,55.40
2018-10-12T09:19:30.347Z,56.07
2018-10-12T09:20:30.339Z,56.10
2018-10-12T09:21:30.111Z,55.13
2018-10-12T09:22:29.992Z,55.16
2018-10-12T09:23:29.874Z,53.43
2018-10-12T09:24:29.759Z,53.81
2018-10-12T09:25:29.640Z,53.23
2018-10-12T09:26:29.519Z,52.97
2018-10-12T09:27:29.399Z,52.27
2018-10-12T09:28:29.283Z,51.70
2018-10-12T09:29:29.167Z,50.95
2018-10-12T09:30:29.046Z,51.12
2018-10-12T09:31:28.928Z,51.79
2018-10-12T09:32:28.811Z,53.27
2018-10-12T09:33:28.693Z,52.91
2018-10-12T09:34:28.572Z,52.33
2018-10-12T09:35:28.456Z,51.77
2018-10-12T09:36:28.396Z,50.90
2018-10-12T09:37:28.220Z,50.93
2018-10-12T09:38:28.100Z,50.93
2018-10-12T09:39:27.992Z,50.62
2018-10-12T09:40:27.867Z,52.16
2018-10-12T09:41:27.750Z,50.93
2018-10-12T09:42:27.635Z,52.19
2018-10-12T09:43:27.516Z,51.20
2018-10-12T09:44:27.399Z,51.48
2018-10-12T09:45:27.281Z,51.87
2018-10-12T09:46:27.162Z,51.87
2018-10-12T09:47:27.048Z,51.07
2018-10-12T09:48:26.930Z,51.84
2018-10-12T09:49:26.815Z,51.94
2018-10-12T09:50:26.786Z,51.77
2018-10-12T09:51:26.578Z,50.42
2018-10-12T09:52:26.464Z,51.87
2018-10-12T09:53:26.343Z,51.97
2018-10-12T09:54:26.228Z,51.65
2018-10-12T09:55:26.112Z,52.04
2018-10-12T09:56:25.997Z,52.61
2018-10-12T09:57:25.881Z,51.20
2018-10-12T09:58:25.763Z,51.07
2018-10-12T09:59:25.658Z,51.36
2018-10-12T10:00:25.524Z,52.04
2018-10-12T10:01:25.409Z,51.00
2018-10-12T10:02:25.322Z,51.58
2018-10-12T10:03:25.173Z,50.62
2018-10-12T10:04:25.059Z,50.40
2018-10-12T10:05:24.940Z,52.04
2018-10-12T10:06:24.824Z,52.81
2018-10-12T10:07:24.716Z,52.25
2018-10-12T10:08:24.701Z,51.97
2018-10-12T10:09:24.478Z,51.87
2018-10-12T10:10:24.397Z,51.17
2018-10-12T10:11:24.238Z,51.82
2018-10-12T10:12:24.121Z,53.39
2018-10-12T10:13:24.005Z,52.61
2018-10-12T10:14:23.905Z,52.04
2018-10-12T10:15:23.984Z,52.23
2018-10-12T10:16:23.663Z,52.20
2018-10-12T10:17:23.536Z,53.07
2018-10-12T10:18:23.419Z,52.71
2018-10-12T10:19:23.388Z,53.48
2018-10-12T10:20:23.183Z,54.44
2018-10-12T10:21:23.070Z,52.83
2018-10-12T10:22:23.016Z,51.00
2018-10-12T10:23:22.833Z,51.39
2018-10-12T10:24:22.716Z,52.13
2018-10-12T10:25:22.602Z,52.13
2018-10-12T10:26:22.485Z,52.23
2018-10-12T10:27:22.365Z,52.61
2018-10-12T10:28:22.250Z,51.65
2018-10-12T10:29:22.184Z,53.03
2018-10-12T10:30:22.011Z,52.45
2018-10-12T10:31:21.895Z,51.65
2018-10-12T10:32:21.885Z,51.56
2018-10-12T10:33:21.661Z,53.07
2018-10-12T10:34:21.544Z,53.36
2018-10-12T10:35:21.426Z,54.22
2018-10-12T10:36:21.310Z,53.09
2018-10-12T10:37:21.193Z,53.09
2018-10-12T10:38:21.075Z,52.35
2018-10-12T10:39:20.958Z,51.39
2018-10-12T10:40:20.839Z,50.04
2018-10-12T10:41:20.722Z,50.98
2018-10-12T10:42:20.605Z,51.48
2018-10-12T10:43:20.488Z,50.62
2018-10-12T10:44:20.371Z,51.00
2018-10-12T10:45:20.257Z,49.89
2018-10-12T10:46:20.216Z,51.84
2018-10-12T10:47:20.018Z,51.46
2018-10-12T10:48:19.900Z,51.00
2018-10-12T10:49:19.783Z,50.54
2018-10-12T10:50:19.665Z,50.47
2018-10-12T10:51:19.549Z,50.98
2018-10-12T10:52:19.434Z,49.44
2018-10-12T10:53:19.313Z,49.05
2018-10-12T10:54:19.200Z,49.53
2018-10-12T10:55:19.084Z,49.02
2018-10-12T10:56:18.963Z,49.48
2018-10-12T10:57:18.846Z,50.47
2018-10-12T10:58:18.729Z,50.45
2018-10-12T10:59:18.611Z,49.68
2018-10-12T11:00:18.492Z,49.68
2018-10-12T11:01:18.377Z,49.94
2018-10-12T11:02:18.257Z,50.81
2018-10-12T11:03:18.145Z,50.98
2018-10-12T11:04:18.027Z,51.84
2018-10-12T11:05:17.905Z,52.35
2018-10-12T11:06:17.802Z,51.20
2018-10-12T11:07:17.671Z,51.87
2018-10-12T11:08:17.556Z,52.23
2018-10-12T11:09:17.435Z,51.84
2018-10-12T11:10:17.319Z,50.98
2018-10-12T11:11:18.839Z,52.33
2018-10-12T11:12:17.125Z,51.77
2018-10-12T11:13:17.016Z,50.78
2018-10-12T11:14:16.847Z,51.26
2018-10-12T11:15:16.728Z,50.98
2018-10-12T11:16:16.609Z,51.65
2018-10-12T11:17:16.494Z,51.58
2018-10-12T11:18:16.373Z,51.75
2018-10-12T11:19:16.255Z,52.42
2018-10-12T11:20:16.138Z,53.39
2018-10-12T11:21:16.021Z,53.17
2018-10-12T11:22:15.914Z,52.91
2018-10-12T11:23:15.781Z,52.81
2018-10-12T11:24:15.675Z,52.81
2018-10-12T11:25:15.548Z,53.67
2018-10-12T11:26:15.459Z,52.23
2018-10-12T11:27:15.311Z,52.23
2018-10-12T11:28:15.191Z,51.87
2018-10-12T11:29:15.080Z,51.26
2018-10-12T11:30:14.956Z,52.04
2018-10-12T11:31:14.841Z,52.13
2018-10-12T11:32:14.719Z,51.62
2018-10-12T11:33:14.601Z,53.17
2018-10-12T11:34:14.485Z,52.78
2018-10-12T11:35:14.363Z,52.69
2018-10-12T11:36:14.249Z,52.87
2018-10-12T11:37:14.127Z,54.22
2018-10-12T11:38:14.026Z,54.35
2018-10-12T11:39:13.890Z,52.61
2018-10-12T11:40:13.772Z,51.72
2018-10-12T11:41:13.653Z,52.78
2018-10-12T11:42:13.533Z,53.74
2018-10-12T11:43:13.415Z,52.78
2018-10-12T11:44:13.296Z,50.57
2018-10-12T11:45:13.213Z,52.27
2018-10-12T11:46:13.063Z,54.00
2018-10-12T11:47:12.946Z,54.00
2018-10-12T11:48:12.821Z,53.05
2018-10-12T11:49:12.705Z,53.14
2018-10-12T11:50:12.586Z,53.21
2018-10-12T11:51:12.466Z,52.83
2018-10-12T11:52:12.459Z,54.27
2018-10-12T11:53:12.239Z,53.78
2018-10-12T11:54:12.112Z,53.21
2018-10-12T11:55:11.989Z,52.63
2018-10-12T11:56:11.871Z,54.10
2018-10-12T11:57:11.754Z,54.32
2018-10-12T11:58:11.633Z,52.66
2018-10-12T11:59:11.517Z,52.30
2018-10-12T12:00:11.401Z,52.08
2018-10-12T12:01:11.466Z,52.47
2018-10-12T12:02:11.194Z,52.85
2018-10-12T12:03:11.039Z,52.69
2018-10-12T12:04:10.924Z,52.40
2018-10-12T12:05:10.801Z,52.01
2018-10-12T12:06:10.685Z,53.55
2018-10-12T12:07:10.571Z,52.87
2018-10-12T12:08:10.445Z,52.78
2018-10-12T12:09:10.326Z,52.30
2018-10-12T12:10:10.210Z,51.92
2018-10-12T12:11:10.089Z,53.29
2018-10-12T12:12:09.972Z,52.01
2018-10-12T12:13:09.853Z,51.92
2018-10-12T12:14:09.731Z,52.11
2018-10-12T12:15:09.616Z,52.69
2018-10-12T12:16:09.497Z,53.96
2018-10-12T12:17:09.376Z,52.33
2018-10-12T12:18:09.256Z,51.84
2018-10-12T12:19:09.183Z,52.42
2018-10-12T12:20:09.022Z,52.23
2018-10-12T12:21:08.904Z,52.42
2018-10-12T12:22:08.785Z,52.30
2018-10-12T12:23:08.666Z,52.78
2018-10-12T12:24:08.545Z,53.55
2018-10-12T12:25:08.428Z,54.16
2018-10-12T12:26:08.307Z,53.96
2018-10-12T12:27:08.191Z,51.17
2018-10-12T12:28:08.072Z,51.84
2018-10-12T12:29:07.956Z,52.13
2018-10-12T12:30:07.837Z,53.61
2018-10-12T12:31:07.719Z,52.93
2018-10-12T12:32:07.604Z,52.93
2018-10-12T12:33:07.479Z,53.13
2018-10-12T12:34:07.363Z,52.83
2018-10-12T12:35:07.461Z,53.13
2018-10-12T12:36:07.426Z,50.81
2018-10-12T12:37:07.005Z,51.68
2018-10-12T12:38:06.885Z,52.55
2018-10-12T12:39:06.768Z,51.77
2018-10-12T12:40:06.659Z,51.00
2018-10-12T12:41:06.532Z,51.29
2018-10-12T12:42:06.413Z,51.87
2018-10-12T12:43:06.294Z,51.39
2018-10-12T12:44:06.193Z,51.68
2018-10-12T12:45:06.057Z,50.32
2018-10-12T12:46:05.940Z,50.32
2018-10-12T12:47:05.824Z,50.90
2018-10-12T12:48:05.846Z,50.04
2018-10-12T12:49:06.115Z,49.19
2018-10-12T12:50:05.481Z,50.06
2018-10-12T12:51:05.351Z,50.26